Time;durP1;ratioP1;P1;durP2;ratioP2;P2;SDS_P1;SDS_P2;PMS_P1;PMS_P2;Temp;Humidity;BMP_temperature;BMP_pressure;BME280_temperature;BME280_humidity;BME280_pressure;Samples;Min_cycle;Max_cycle;Signal;HPM_P1;HPM_P2
2021/12/12 00:00:31;;;;;;;;;;;;;;;;;;5092875;28;19915;-74
2021/12/12 00:02:59;;;;;;;;;;;;;;;;;;5092832;28;19915;-74
2021/12/12 00:05:26;;;;;;;;;;;;;;;;;;5074696;28;19908;-74
2021/12/12 00:07:51;;;;;;;;;;;;;;;;;;5092706;28;20379;-74
2021/12/12 00:10:17;;;;;;;;;;;;;;;;;;5094803;28;19920;-74
2021/12/12 00:12:43;;;;;;;;;;;;;;;;;;5096454;28;20373;-74
2021/12/12 00:15:09;;;;;;;;;;;;;;;;;;5078149;28;19912;-73
2021/12/12 00:17:35;;;;;;;;;;;;;;;;;;5096510;28;19908;-74
2021/12/12 00:20:01;;;;;;;;;;;;;;;;;;5096418;28;19908;-74
2021/12/12 00:22:27;;;;;;;;;;;;;;;;;;5096365;28;19912;-73
2021/12/12 00:24:52;;;;;;;;;;;;;;;;;;5096091;28;19908;-74
2021/12/12 00:27:19;;;;;;;;;;;;;;;;;;5078013;28;20006;-74
2021/12/12 00:29:45;;;;;;;;;;;;;;;;;;5096130;28;19986;-74
2021/12/12 00:32:11;;;;;;;;;;;;;;;;;;5077978;28;19916;-74
2021/12/12 00:34:36;;;;;;;;;;;;;;;;;;5077987;28;19908;-74
2021/12/12 00:37:02;;;;;;;;;;;;;;;;;;5077911;28;19912;-74
2021/12/12 00:39:28;;;;;;;;;;;;;;;;;;5095943;28;19918;-74
2021/12/12 00:41:54;;;;;;;;;;;;;;;;;;5095575;28;20292;-74
2021/12/12 00:44:20;;;;;;;;;;;;;;;;;;5095834;28;19999;-74
2021/12/12 00:46:46;;;;;;;;;;;;;;;;;;5095758;28;19908;-74
2021/12/12 00:49:12;;;;;;;;;;;;;;;;;;5077668;28;19915;-74
2021/12/12 00:51:37;;;;;;;;;;;;;;;;;;5095717;28;20520;-74
2021/12/12 00:54:04;;;;;;;;;;;;;;;;;;5095817;28;19998;-74
2021/12/12 00:56:30;;;;;;;;;;;;;;;;;;5095581;28;19909;-74
2021/12/12 00:58:55;;;;;;;;;;;;;;;;;;5076276;28;19908;-74
2021/12/12 01:01:21;;;;;;;;;;;;;;;;;;5104697;28;19967;-74
2021/12/12 01:03:47;;;;;;;;;;;;;;;;;;5105398;28;20009;-74
2021/12/12 01:06:13;;;;;;;;;;;;;;;;;;5105108;28;19915;-74
2021/12/12 01:08:39;;;;;;;;;;;;;;;;;;5104130;28;19912;-74
2021/12/12 01:11:05;;;;;;;;;;;;;;;;;;5105647;28;20015;-74
2021/12/12 01:13:31;;;;;;;;;;;;;;;;;;5102805;28;20368;-73
2021/12/12 01:15:57;;;;;;;;;;;;;;;;;;5106503;28;20063;-74
2021/12/12 01:18:23;;;;;;;;;;;;;;;;;;5085268;28;19923;-74
2021/12/12 01:20:51;;;;;;;;;;;;;;;;;;5105034;28;20295;-74
2021/12/12 01:23:17;;;;;;;;;;;;;;;;;;5103827;28;20359;-74
2021/12/12 01:25:44;;;;;;;;;;;;;;;;;;5086231;28;19965;-74
2021/12/12 01:28:10;;;;;;;;;;;;;;;;;;5104434;28;19964;-74
2021/12/12 01:30:36;;;;;;;;;;;;;;;;;;5102840;28;20442;-74
2021/12/12 01:33:02;;;;;;;;;;;;;;;;;;5102842;28;19912;-74
2021/12/12 01:35:28;;;;;;;;;;;;;;;;;;5106339;28;19919;-74
2021/12/12 01:40:38;;;;;;;;;;;;;;;;;;5104368;28;20007;-74
2021/12/12 01:43:04;;;;;;;;;;;;;;;;;;5102737;28;19955;-74
2021/12/12 01:45:30;;;;;;;;;;;;;;;;;;5105764;28;19911;-74
2021/12/12 01:47:56;;;;;;;;;;;;;;;;;;5084189;28;20439;-74
2021/12/12 01:50:22;;;;;;;;;;;;;;;;;;5105022;28;19920;-74
2021/12/12 01:52:47;;;;;;;;;;;;;;;;;;5103403;28;19912;-74
2021/12/12 01:55:18;;;;;;;;;;;;;;;;;;5085522;28;19912;-74
2021/12/12 01:57:44;;;;;;;;;;;;;;;;;;5103991;28;19935;-74
2021/12/12 02:00:09;;;;;;;;;;;;;;;;;;5085166;28;20360;-74
2021/12/12 02:02:35;;;;;;;;;;;;;;;;;;5104972;28;19916;-74
2021/12/12 02:05:01;;;;;;;;;;;;;;;;;;5101838;28;19919;-74
2021/12/12 02:07:27;;;;;;;;;;;;;;;;;;5105680;28;20382;-74
2021/12/12 02:09:53;;;;;;;;;;;;;;;;;;5101374;28;19927;-74
2021/12/12 02:12:19;;;;;;;;;;;;;;;;;;5104123;28;19978;-74
2021/12/12 02:14:45;;;;;;;;;;;;;;;;;;5103539;28;19919;-74
2021/12/12 02:17:14;;;;;;;;;;;;;;;;;;5102967;28;20257;-74
2021/12/12 02:22:41;;;;;;;;;;;;;;;;;;5072639;28;20402;-73
2021/12/12 02:36:08;;;;;;;;;;;;;;;;;;5099170;28;19919;-74
2021/12/12 02:38:34;;;;;;;;;;;;;;;;;;5104491;28;19943;-74
2021/12/12 02:41:00;;;;;;;;;;;;;;;;;;5100956;28;19912;-73
2021/12/12 02:43:26;;;;;;;;;;;;;;;;;;5104715;28;19911;-74
2021/12/12 02:45:55;;;;;;;;;;;;;;;;;;5083746;28;19920;-73
2021/12/12 02:48:21;;;;;;;;;;;;;;;;;;5103697;28;20314;-74
2021/12/12 02:50:47;;;;;;;;;;;;;;;;;;5102312;28;19920;-74
2021/12/12 02:53:13;;;;;;;;;;;;;;;;;;5102551;28;20433;-74
2021/12/12 02:55:38;;;;;;;;;;;;;;;;;;5103417;28;19968;-74
2021/12/12 02:58:04;;;;;;;;;;;;;;;;;;5101598;28;19916;-74
2021/12/12 03:00:30;;;;;;;;;;;;;;;;;;5086453;28;19920;-74
2021/12/12 03:02:59;;;;;;;;;;;;;;;;;;5101127;28;19916;-74
2021/12/12 03:05:25;;;;;;;;;;;;;;;;;;5104103;28;19911;-74
2021/12/12 03:07:51;;;;;;;;;;;;;;;;;;5101659;28;21043;-74
2021/12/12 03:10:17;;;;;;;;;;;;;;;;;;5102672;28;19920;-74
2021/12/12 03:12:43;;;;;;;;;;;;;;;;;;5102852;28;20440;-74
2021/12/12 03:15:09;;;;;;;;;;;;;;;;;;5101688;28;19916;-74
2021/12/12 03:17:35;;;;;;;;;;;;;;;;;;5103990;28;19938;-74
2021/12/12 03:20:01;;;;;;;;;;;;;;;;;;5100853;28;20272;-74
2021/12/12 03:22:27;;;;;;;;;;;;;;;;;;5104180;28;20360;-74
2021/12/12 03:24:52;;;;;;;;;;;;;;;;;;5082574;28;20011;-73
2021/12/12 03:27:20;;;;;;;;;;;;;;;;;;5086742;28;20436;-74
2021/12/12 03:29:46;;;;;;;;;;;;;;;;;;5102781;28;19912;-74
2021/12/12 03:32:11;;;;;;;;;;;;;;;;;;5102607;28;19926;-74
2021/12/12 03:34:37;;;;;;;;;;;;;;;;;;5083322;28;20368;-74
2021/12/12 03:37:03;;;;;;;;;;;;;;;;;;5103852;28;19912;-74
2021/12/12 03:39:29;;;;;;;;;;;;;;;;;;5100618;28;19920;-74
2021/12/12 03:41:55;;;;;;;;;;;;;;;;;;5103814;28;19912;-74
2021/12/12 03:44:21;;;;;;;;;;;;;;;;;;5104360;28;19912;-74
2021/12/12 03:46:46;;;;;;;;;;;;;;;;;;5106496;28;20368;-74
2021/12/12 03:49:12;;;;;;;;;;;;;;;;;;5106491;28;19919;-74
2021/12/12 03:51:38;;;;;;;;;;;;;;;;;;5105575;28;19963;-74
2021/12/12 03:54:04;;;;;;;;;;;;;;;;;;5107581;28;20283;-74
2021/12/12 03:56:30;;;;;;;;;;;;;;;;;;5104648;28;19982;-74
2021/12/12 03:58:56;;;;;;;;;;;;;;;;;;5107987;28;19912;-74
2021/12/12 04:01:22;;;;;;;;;;;;;;;;;;5086473;28;19920;-73
2021/12/12 04:03:47;;;;;;;;;;;;;;;;;;5106671;28;19916;-74
2021/12/12 04:06:13;;;;;;;;;;;;;;;;;;5106305;28;20276;-74
2021/12/12 04:08:39;;;;;;;;;;;;;;;;;;5105196;28;19916;-74
2021/12/12 04:11:05;;;;;;;;;;;;;;;;;;5106532;28;19966;-74
2021/12/12 04:13:31;;;;;;;;;;;;;;;;;;5104314;28;20334;-74
2021/12/12 04:15:57;;;;;;;;;;;;;;;;;;5107819;28;19912;-74
2021/12/12 04:18:23;;;;;;;;;;;;;;;;;;5104431;28;20384;-74
2021/12/12 04:20:48;;;;;;;;;;;;;;;;;;5088229;28;19912;-74
2021/12/12 04:23:14;;;;;;;;;;;;;;;;;;5087125;28;19916;-74
2021/12/12 04:25:40;;;;;;;;;;;;;;;;;;5105290;28;20004;-74
2021/12/12 04:28:06;;;;;;;;;;;;;;;;;;5106771;28;19919;-74
2021/12/12 04:30:32;;;;;;;;;;;;;;;;;;5085676;28;20082;-74
2021/12/12 04:32:58;;;;;;;;;;;;;;;;;;5099710;28;19935;-74
2021/12/12 04:35:25;;;;;;;;;;;;;;;;;;5096258;28;19968;-74
2021/12/12 04:37:51;;;;;;;;;;;;;;;;;;5095709;28;19905;-74
2021/12/12 04:40:17;;;;;;;;;;;;;;;;;;5096236;28;19908;-74
2021/12/12 04:42:43;;;;;;;;;;;;;;;;;;5096110;28;19905;-74
2021/12/12 04:45:08;;;;;;;;;;;;;;;;;;5096083;28;20397;-74
2021/12/12 04:50:19;;;;;;;;;;;;;;;;;;5095743;28;20402;-74
2021/12/12 04:52:45;;;;;;;;;;;;;;;;;;5095483;28;19908;-74
2021/12/12 04:55:10;;;;;;;;;;;;;;;;;;5076888;28;19909;-74
2021/12/12 04:57:36;;;;;;;;;;;;;;;;;;5095607;28;19908;-74
2021/12/12 05:00:02;;;;;;;;;;;;;;;;;;5095750;28;19909;-74
2021/12/12 05:02:28;;;;;;;;;;;;;;;;;;5077206;28;19915;-74
2021/12/12 05:04:54;;;;;;;;;;;;;;;;;;5095682;28;19930;-74
2021/12/12 05:07:20;;;;;;;;;;;;;;;;;;5095557;28;19908;-74
2021/12/12 05:09:49;;;;;;;;;;;;;;;;;;5095160;28;20330;-74
2021/12/12 05:12:15;;;;;;;;;;;;;;;;;;5095286;28;19924;-74
2021/12/12 05:14:44;;;;;;;;;;;;;;;;;;5095368;28;19915;-74
2021/12/12 05:17:10;;;;;;;;;;;;;;;;;;5095283;28;20380;-74
2021/12/12 05:19:36;;;;;;;;;;;;;;;;;;5095201;28;19912;-74
2021/12/12 05:22:02;;;;;;;;;;;;;;;;;;5077169;28;19908;-74
2021/12/12 05:24:28;;;;;;;;;;;;;;;;;;5095178;28;19908;-74
2021/12/12 05:26:54;;;;;;;;;;;;;;;;;;5094905;28;19973;-74
2021/12/12 05:29:20;;;;;;;;;;;;;;;;;;5095097;28;19950;-74
2021/12/12 05:31:46;;;;;;;;;;;;;;;;;;5094603;28;19956;-74
2021/12/12 05:34:12;;;;;;;;;;;;;;;;;;5076592;28;19912;-73
2021/12/12 05:36:38;;;;;;;;;;;;;;;;;;5094963;28;19991;-73
2021/12/12 05:39:04;;;;;;;;;;;;;;;;;;5076861;28;19908;-73
2021/12/12 05:41:29;;;;;;;;;;;;;;;;;;5094930;28;20279;-73
2021/12/12 05:43:55;;;;;;;;;;;;;;;;;;5094793;28;19912;-74
2021/12/12 05:46:23;;;;;;;;;;;;;;;;;;5094610;28;19908;-74
2021/12/12 05:48:48;;;;;;;;;;;;;;;;;;5094716;28;19912;-74
2021/12/12 05:51:14;;;;;;;;;;;;;;;;;;5094641;28;19920;-73
2021/12/12 05:53:40;;;;;;;;;;;;;;;;;;5094589;28;19909;-74
2021/12/12 05:56:06;;;;;;;;;;;;;;;;;;5094244;28;20368;-74
2021/12/12 05:58:32;;;;;;;;;;;;;;;;;;5094490;28;19908;-74
2021/12/12 06:00:58;;;;;;;;;;;;;;;;;;5094278;28;19934;-73
2021/12/12 06:03:24;;;;;;;;;;;;;;;;;;5094501;28;19931;-74
2021/12/12 06:05:50;;;;;;;;;;;;;;;;;;5094453;28;19955;-74
2021/12/12 06:08:15;;;;;;;;;;;;;;;;;;5094399;28;19908;-74
2021/12/12 06:10:41;;;;;;;;;;;;;;;;;;5094079;28;20364;-74
2021/12/12 06:13:09;;;;;;;;;;;;;;;;;;5094183;28;19919;-74
2021/12/12 06:15:35;;;;;;;;;;;;;;;;;;5094019;28;19998;-74
2021/12/12 06:18:01;;;;;;;;;;;;;;;;;;5094156;28;20353;-74
2021/12/12 06:20:27;;;;;;;;;;;;;;;;;;5094130;28;19915;-74
2021/12/12 06:22:53;;;;;;;;;;;;;;;;;;5075935;28;19908;-74
2021/12/12 06:25:19;;;;;;;;;;;;;;;;;;5094070;28;20288;-74
2021/12/12 06:27:45;;;;;;;;;;;;;;;;;;5093869;28;20360;-74
2021/12/12 06:30:10;;;;;;;;;;;;;;;;;;5094120;28;19999;-74
2021/12/12 06:32:36;;;;;;;;;;;;;;;;;;5093640;28;19916;-74
2021/12/12 06:35:02;;;;;;;;;;;;;;;;;;5093900;28;19998;-74
2021/12/12 06:37:28;;;;;;;;;;;;;;;;;;5093845;28;19908;-74
2021/12/12 06:39:54;;;;;;;;;;;;;;;;;;5093850;28;19916;-74
2021/12/12 06:42:20;;;;;;;;;;;;;;;;;;5093651;28;19908;-74
2021/12/12 06:44:45;;;;;;;;;;;;;;;;;;5075480;28;20306;-73
2021/12/12 06:47:11;;;;;;;;;;;;;;;;;;5093668;28;19908;-74
2021/12/12 06:49:37;;;;;;;;;;;;;;;;;;5093647;28;19908;-74
2021/12/12 06:52:03;;;;;;;;;;;;;;;;;;5075359;28;19916;-74
2021/12/12 06:54:29;;;;;;;;;;;;;;;;;;5093310;28;19912;-73
2021/12/12 06:56:55;;;;;;;;;;;;;;;;;;5093009;28;19958;-74
2021/12/12 06:59:21;;;;;;;;;;;;;;;;;;5093175;28;19908;-74
2021/12/12 07:01:46;;;;;;;;;;;;;;;;;;5074937;28;19931;-74
2021/12/12 07:04:15;;;;;;;;;;;;;;;;;;5075310;28;19916;-74
2021/12/12 07:06:41;;;;;;;;;;;;;;;;;;5093443;28;19916;-74
2021/12/12 07:09:07;;;;;;;;;;;;;;;;;;5093147;28;19916;-74
2021/12/12 07:11:33;;;;;;;;;;;;;;;;;;5074788;28;19916;-74
2021/12/12 07:13:59;;;;;;;;;;;;;;;;;;5092912;28;20371;-74
2021/12/12 07:16:25;;;;;;;;;;;;;;;;;;5093232;28;19908;-73
2021/12/12 07:18:50;;;;;;;;;;;;;;;;;;5092780;28;19947;-74
2021/12/12 07:21:16;;;;;;;;;;;;;;;;;;5093112;28;19904;-74
2021/12/12 07:23:42;;;;;;;;;;;;;;;;;;5093001;28;20350;-74
2021/12/12 07:26:08;;;;;;;;;;;;;;;;;;5092804;28;19915;-74
2021/12/12 07:28:34;;;;;;;;;;;;;;;;;;5093051;28;19908;-74
2021/12/12 07:31:00;;;;;;;;;;;;;;;;;;5092989;28;19920;-73
2021/12/12 07:33:26;;;;;;;;;;;;;;;;;;5093430;28;19912;-74
2021/12/12 07:35:51;;;;;;;;;;;;;;;;;;5074975;28;19908;-74
2021/12/12 07:38:17;;;;;;;;;;;;;;;;;;5092819;28;19954;-74
2021/12/12 07:40:43;;;;;;;;;;;;;;;;;;5074953;28;19908;-74
2021/12/12 07:43:09;;;;;;;;;;;;;;;;;;5092766;28;19928;-74
2021/12/12 07:45:35;;;;;;;;;;;;;;;;;;5074957;28;19908;-74
2021/12/12 07:48:01;;;;;;;;;;;;;;;;;;5092959;28;19908;-74
2021/12/12 07:50:27;;;;;;;;;;;;;;;;;;5074863;28;20272;-74
2021/12/12 07:52:52;;;;;;;;;;;;;;;;;;5092825;28;19908;-74
2021/12/12 07:55:18;;;;;;;;;;;;;;;;;;5092586;28;19908;-74
2021/12/12 07:57:44;;;;;;;;;;;;;;;;;;5092751;28;19919;-74
2021/12/12 08:00:10;;;;;;;;;;;;;;;;;;5092875;28;20021;-74
2021/12/12 08:02:36;;;;;;;;;;;;;;;;;;5092836;28;19908;-74
2021/12/12 08:05:02;;;;;;;;;;;;;;;;;;5074404;28;19909;-74
2021/12/12 08:07:28;;;;;;;;;;;;;;;;;;5092148;28;19977;-74
2021/12/12 08:09:54;;;;;;;;;;;;;;;;;;5092235;28;19928;-74
2021/12/12 08:12:20;;;;;;;;;;;;;;;;;;5091676;28;20280;-74
2021/12/12 08:14:46;;;;;;;;;;;;;;;;;;5074577;28;19914;-74
2021/12/12 08:17:11;;;;;;;;;;;;;;;;;;5074286;28;19915;-74
2021/12/12 08:19:37;;;;;;;;;;;;;;;;;;5092278;28;19914;-74
2021/12/12 08:22:03;;;;;;;;;;;;;;;;;;5073421;28;20445;-74
2021/12/12 08:24:29;;;;;;;;;;;;;;;;;;5073923;28;19931;-74
2021/12/12 08:26:55;;;;;;;;;;;;;;;;;;5092477;28;19915;-74
2021/12/12 08:29:21;;;;;;;;;;;;;;;;;;5092430;28;20284;-74
2021/12/12 08:31:47;;;;;;;;;;;;;;;;;;5095882;28;19924;-74
2021/12/12 08:34:12;;;;;;;;;;;;;;;;;;5096268;28;19908;-74
2021/12/12 08:36:38;;;;;;;;;;;;;;;;;;5096145;28;20339;-74
2021/12/12 08:39:04;;;;;;;;;;;;;;;;;;5096064;28;19910;-74
2021/12/12 08:41:30;;;;;;;;;;;;;;;;;;5095694;28;19912;-74
2021/12/12 08:43:56;;;;;;;;;;;;;;;;;;5096080;28;19909;-73
2021/12/12 08:46:23;;;;;;;;;;;;;;;;;;5077822;28;20282;-74
2021/12/12 08:48:49;;;;;;;;;;;;;;;;;;5095571;28;19916;-74
2021/12/12 08:51:15;;;;;;;;;;;;;;;;;;5095590;28;19916;-74
2021/12/12 08:53:41;;;;;;;;;;;;;;;;;;5095430;28;19912;-74
2021/12/12 08:56:08;;;;;;;;;;;;;;;;;;5077495;28;20418;-73
2021/12/12 08:58:34;;;;;;;;;;;;;;;;;;5095717;28;19912;-74
2021/12/12 09:01:00;;;;;;;;;;;;;;;;;;5077565;28;19985;-73
2021/12/12 09:03:26;;;;;;;;;;;;;;;;;;5095714;28;20380;-74
2021/12/12 09:05:52;;;;;;;;;;;;;;;;;;5095558;28;19908;-74
2021/12/12 09:08:18;;;;;;;;;;;;;;;;;;5095496;28;19915;-74
2021/12/12 09:10:44;;;;;;;;;;;;;;;;;;5095237;28;19940;-74
2021/12/12 09:13:09;;;;;;;;;;;;;;;;;;5095422;28;19919;-74
2021/12/12 09:15:35;;;;;;;;;;;;;;;;;;5095467;28;20348;-74
2021/12/12 09:18:01;;;;;;;;;;;;;;;;;;5095301;28;19908;-74
2021/12/12 09:20:32;;;;;;;;;;;;;;;;;;5095307;28;20043;-74
2021/12/12 09:23:00;;;;;;;;;;;;;;;;;;5077210;28;19961;-74
2021/12/12 09:25:31;;;;;;;;;;;;;;;;;;5095120;28;19908;-73
2021/12/12 09:27:57;;;;;;;;;;;;;;;;;;5076372;28;19912;-74
2021/12/12 09:30:23;;;;;;;;;;;;;;;;;;5076145;28;19974;-74
2021/12/12 09:32:49;;;;;;;;;;;;;;;;;;5094940;28;19919;-74
2021/12/12 09:35:15;;;;;;;;;;;;;;;;;;5076009;28;19961;-74
2021/12/12 09:37:40;;;;;;;;;;;;;;;;;;5094484;28;19908;-75
2021/12/12 09:40:06;;;;;;;;;;;;;;;;;;5075898;28;20364;-74
2021/12/12 09:42:32;;;;;;;;;;;;;;;;;;5075710;28;19954;-74
2021/12/12 09:44:58;;;;;;;;;;;;;;;;;;5094410;28;19909;-74
2021/12/12 09:47:35;;;;;;;;;;;;;;;;;;5094401;28;19912;-74
2021/12/12 09:52:46;;;;;;;;;;;;;;;;;;5092422;28;19939;-74
2021/12/12 09:55:11;;;;;;;;;;;;;;;;;;5094546;28;20356;-74
2021/12/12 09:57:37;;;;;;;;;;;;;;;;;;5094680;28;19974;-74
2021/12/12 10:00:03;;;;;;;;;;;;;;;;;;5075813;28;19916;-74
2021/12/12 10:02:29;;;;;;;;;;;;;;;;;;5093819;28;19965;-74
2021/12/12 10:04:55;;;;;;;;;;;;;;;;;;5094006;28;19908;-74
2021/12/12 10:07:21;;;;;;;;;;;;;;;;;;5075856;28;20316;-74
2021/12/12 10:09:46;;;;;;;;;;;;;;;;;;5093884;28;19924;-74
2021/12/12 10:12:12;;;;;;;;;;;;;;;;;;5094105;28;19969;-74
2021/12/12 10:14:38;;;;;;;;;;;;;;;;;;5094062;28;19908;-74
2021/12/12 10:17:04;;;;;;;;;;;;;;;;;;5075830;28;19912;-74
2021/12/12 10:19:30;;;;;;;;;;;;;;;;;;5094058;28;19908;-74
2021/12/12 10:21:56;;;;;;;;;;;;;;;;;;5094027;28;19908;-74
2021/12/12 10:24:22;;;;;;;;;;;;;;;;;;5094212;28;19908;-74
2021/12/12 10:26:47;;;;;;;;;;;;;;;;;;5094016;28;20394;-74
2021/12/12 10:29:13;;;;;;;;;;;;;;;;;;5093937;28;19908;-74
2021/12/12 10:31:39;;;;;;;;;;;;;;;;;;5074632;28;19967;-74
2021/12/12 10:34:05;;;;;;;;;;;;;;;;;;5093400;28;19915;-74
2021/12/12 10:36:31;;;;;;;;;;;;;;;;;;5075143;28;19908;-73
2021/12/12 10:38:57;;;;;;;;;;;;;;;;;;5093854;28;19950;-74
2021/12/12 10:41:23;;;;;;;;;;;;;;;;;;5093717;28;19916;-74
2021/12/12 10:43:49;;;;;;;;;;;;;;;;;;5093697;28;19912;-74
2021/12/12 10:46:14;;;;;;;;;;;;;;;;;;5093471;28;19912;-74
2021/12/12 10:48:40;;;;;;;;;;;;;;;;;;5075287;28;19908;-74
2021/12/12 10:51:06;;;;;;;;;;;;;;;;;;5093230;28;19912;-74
2021/12/12 10:53:34;;;;;;;;;;;;;;;;;;5092651;28;20372;-74
2021/12/12 10:55:59;;;;;;;;;;;;;;;;;;5093357;28;19919;-71
2021/12/12 10:58:25;;;;;;;;;;;;;;;;;;5093526;28;20002;-71
2021/12/12 11:00:51;;;;;;;;;;;;;;;;;;5093172;28;19912;-71
2021/12/12 11:03:17;;;;;;;;;;;;;;;;;;5074954;28;19908;-71
2021/12/12 11:05:44;;;;;;;;;;;;;;;;;;5093105;28;19908;-71
2021/12/12 11:08:10;;;;;;;;;;;;;;;;;;5093410;28;19908;-71
2021/12/12 11:10:36;;;;;;;;;;;;;;;;;;5092905;28;19927;-70
2021/12/12 11:13:03;;;;;;;;;;;;;;;;;;5093096;28;19912;-71
2021/12/12 11:15:30;;;;;;;;;;;;;;;;;;5092362;28;21492;-71
2021/12/12 11:17:56;;;;;;;;;;;;;;;;;;5093320;28;20008;-71
2021/12/12 11:20:22;;;;;;;;;;;;;;;;;;5093185;28;19939;-71
2021/12/12 11:22:48;;;;;;;;;;;;;;;;;;5093160;28;19908;-70
2021/12/12 11:25:14;;;;;;;;;;;;;;;;;;5093134;28;19908;-70
2021/12/12 11:27:40;;;;;;;;;;;;;;;;;;5093187;28;19952;-71
2021/12/12 11:30:05;;;;;;;;;;;;;;;;;;5092580;28;19912;-73
2021/12/12 11:32:34;;;;;;;;;;;;;;;;;;5073233;28;19916;-71
2021/12/12 11:35:00;;;;;;;;;;;;;;;;;;5092649;28;19912;-76
2021/12/12 11:37:26;;;;;;;;;;;;;;;;;;5092893;28;19915;-73
2021/12/12 11:39:52;;;;;;;;;;;;;;;;;;5092893;28;20049;-72
2021/12/12 11:42:18;;;;;;;;;;;;;;;;;;5092785;28;19933;-72
2021/12/12 11:44:44;;;;;;;;;;;;;;;;;;5092776;28;20382;-73
2021/12/12 11:47:10;;;;;;;;;;;;;;;;;;5092898;28;19948;-72
2021/12/12 11:49:36;;;;;;;;;;;;;;;;;;5092888;28;19954;-73
2021/12/12 11:52:01;;;;;;;;;;;;;;;;;;5074556;28;19916;-73
2021/12/12 11:54:27;;;;;;;;;;;;;;;;;;5092876;28;19962;-72
2021/12/12 11:56:53;;;;;;;;;;;;;;;;;;5092718;28;19908;-72
2021/12/12 11:59:19;;;;;;;;;;;;;;;;;;5092711;28;19912;-73
2021/12/12 12:01:45;;;;;;;;;;;;;;;;;;5092466;28;19916;-73
2021/12/12 12:04:11;;;;;;;;;;;;;;;;;;5093799;28;19912;-73
2021/12/12 12:06:37;;;;;;;;;;;;;;;;;;5096735;28;19908;-73
2021/12/12 12:09:03;;;;;;;;;;;;;;;;;;5096273;28;20348;-72
2021/12/12 12:11:29;;;;;;;;;;;;;;;;;;5096467;28;19919;-72
2021/12/12 12:13:55;;;;;;;;;;;;;;;;;;5096554;28;19931;-72
2021/12/12 12:16:20;;;;;;;;;;;;;;;;;;5096463;28;20371;-73
2021/12/12 12:18:46;;;;;;;;;;;;;;;;;;5096476;28;19961;-72
2021/12/12 12:21:15;;;;;;;;;;;;;;;;;;5095989;28;19919;-73
2021/12/12 12:23:54;;;;;;;;;;;;;;;;;;5093202;28;19908;-72
2021/12/12 12:29:04;;;;;;;;;;;;;;;;;;5096363;28;20057;-73
2021/12/12 12:31:31;;;;;;;;;;;;;;;;;;5095995;28;19989;-72
2021/12/12 12:33:57;;;;;;;;;;;;;;;;;;5096195;28;20421;-72
2021/12/12 12:36:23;;;;;;;;;;;;;;;;;;5096143;28;19954;-72
2021/12/12 12:38:49;;;;;;;;;;;;;;;;;;5095986;28;19912;-71
2021/12/12 12:41:15;;;;;;;;;;;;;;;;;;5095976;28;19912;-71
2021/12/12 12:43:41;;;;;;;;;;;;;;;;;;5095705;28;19912;-72
2021/12/12 12:46:07;;;;;;;;;;;;;;;;;;5095504;28;19908;-72
2021/12/12 12:48:33;;;;;;;;;;;;;;;;;;5095658;28;20339;-72
2021/12/12 12:50:59;;;;;;;;;;;;;;;;;;5095456;28;20363;-71
2021/12/12 12:53:25;;;;;;;;;;;;;;;;;;5095446;28;19923;-71
2021/12/12 12:55:51;;;;;;;;;;;;;;;;;;5095534;28;20261;-72
2021/12/12 12:58:16;;;;;;;;;;;;;;;;;;5095478;28;19912;-72
2021/12/12 13:00:42;;;;;;;;;;;;;;;;;;5095150;28;19908;-72
2021/12/12 13:03:08;;;;;;;;;;;;;;;;;;5095140;28;19908;-79
2021/12/12 13:05:34;;;;;;;;;;;;;;;;;;5095507;28;19909;-77
2021/12/12 13:08:00;;;;;;;;;;;;;;;;;;5095333;28;20310;-74
2021/12/12 13:10:26;;;;;;;;;;;;;;;;;;5094553;28;19920;-75
2021/12/12 13:12:52;;;;;;;;;;;;;;;;;;5095044;28;19916;-79
2021/12/12 13:15:17;;;;;;;;;;;;;;;;;;5095115;28;19908;-74
2021/12/12 13:17:44;;;;;;;;;;;;;;;;;;5094386;28;19919;-72
2021/12/12 13:20:11;;;;;;;;;;;;;;;;;;5094822;28;20014;-72
2021/12/12 13:22:37;;;;;;;;;;;;;;;;;;5094850;28;20383;-72
2021/12/12 13:25:06;;;;;;;;;;;;;;;;;;5095099;28;19904;-72
2021/12/12 13:27:43;;;;;;;;;;;;;;;;;;5095197;28;19995;-72
2021/12/12 13:30:09;;;;;;;;;;;;;;;;;;5095112;28;19904;-72
2021/12/12 13:32:36;;;;;;;;;;;;;;;;;;5095020;28;20265;-72
2021/12/12 13:35:02;;;;;;;;;;;;;;;;;;5094960;28;19908;-72
2021/12/12 13:37:28;;;;;;;;;;;;;;;;;;5094862;28;19949;-72
2021/12/12 13:39:54;;;;;;;;;;;;;;;;;;5094944;28;20387;-72
2021/12/12 13:42:19;;;;;;;;;;;;;;;;;;5094926;28;19908;-72
2021/12/12 13:44:45;;;;;;;;;;;;;;;;;;5094897;28;19908;-72
2021/12/12 13:47:11;;;;;;;;;;;;;;;;;;5076663;28;20291;-72
2021/12/12 13:49:37;;;;;;;;;;;;;;;;;;5094734;28;19912;-72
2021/12/12 13:52:03;;;;;;;;;;;;;;;;;;5094615;28;20364;-72
2021/12/12 13:54:29;;;;;;;;;;;;;;;;;;5094677;28;19909;-72
2021/12/12 13:56:55;;;;;;;;;;;;;;;;;;5094489;28;19908;-72
2021/12/12 13:59:20;;;;;;;;;;;;;;;;;;5076478;28;19908;-72
2021/12/12 14:01:46;;;;;;;;;;;;;;;;;;5094503;28;20410;-72
2021/12/12 14:04:12;;;;;;;;;;;;;;;;;;5094155;28;19908;-72
2021/12/12 14:06:38;;;;;;;;;;;;;;;;;;5094398;28;20002;-72
2021/12/12 14:09:04;;;;;;;;;;;;;;;;;;5094119;28;19916;-72
2021/12/12 14:11:30;;;;;;;;;;;;;;;;;;5093803;28;20329;-72
2021/12/12 14:13:56;;;;;;;;;;;;;;;;;;5076013;28;19915;-72
2021/12/12 14:16:23;;;;;;;;;;;;;;;;;;5094236;28;19934;-72
2021/12/12 14:18:48;;;;;;;;;;;;;;;;;;5094206;28;19913;-72
2021/12/12 14:21:14;;;;;;;;;;;;;;;;;;5075891;28;19919;-72
2021/12/12 14:23:40;;;;;;;;;;;;;;;;;;5094107;28;19915;-72
2021/12/12 14:26:06;;;;;;;;;;;;;;;;;;5075283;28;20002;-72
2021/12/12 14:28:32;;;;;;;;;;;;;;;;;;5092797;28;19908;-72
2021/12/12 14:30:58;;;;;;;;;;;;;;;;;;5093587;28;19920;-72
2021/12/12 14:33:24;;;;;;;;;;;;;;;;;;5093568;28;19912;-72
2021/12/12 14:35:49;;;;;;;;;;;;;;;;;;5093322;28;19912;-72
2021/12/12 14:38:15;;;;;;;;;;;;;;;;;;5093273;28;20387;-72
2021/12/12 14:40:41;;;;;;;;;;;;;;;;;;5075245;28;19912;-72
2021/12/12 14:43:07;;;;;;;;;;;;;;;;;;5093285;28;19909;-72
2021/12/12 14:45:33;;;;;;;;;;;;;;;;;;5092974;28;20276;-72
2021/12/12 14:47:59;;;;;;;;;;;;;;;;;;5093114;28;19933;-72
2021/12/12 14:50:25;;;;;;;;;;;;;;;;;;5093278;28;19943;-72
2021/12/12 14:52:50;;;;;;;;;;;;;;;;;;5093055;28;20010;-72
2021/12/12 14:55:16;;;;;;;;;;;;;;;;;;5093184;28;19908;-72
2021/12/12 14:57:42;;;;;;;;;;;;;;;;;;5093070;28;19983;-72
2021/12/12 15:00:08;;;;;;;;;;;;;;;;;;5093096;28;20263;-72
2021/12/12 15:02:34;;;;;;;;;;;;;;;;;;5093320;28;20421;-72
2021/12/12 15:05:00;;;;;;;;;;;;;;;;;;5092902;28;20007;-72
2021/12/12 15:07:26;;;;;;;;;;;;;;;;;;5093537;28;19954;-72
2021/12/12 15:09:51;;;;;;;;;;;;;;;;;;5093247;28;19935;-72
2021/12/12 15:12:17;;;;;;;;;;;;;;;;;;5092985;28;19919;-72
2021/12/12 15:14:43;;;;;;;;;;;;;;;;;;5093259;28;19908;-72
2021/12/12 15:17:09;;;;;;;;;;;;;;;;;;5091925;28;19912;-72
2021/12/12 15:19:35;;;;;;;;;;;;;;;;;;5093166;28;19912;-72
2021/12/12 15:22:03;;;;;;;;;;;;;;;;;;5093094;28;19915;-76
2021/12/12 15:24:29;;;;;;;;;;;;;;;;;;5092820;28;20287;-75
2021/12/12 15:26:54;;;;;;;;;;;;;;;;;;5092836;28;19912;-74
2021/12/12 15:29:20;;;;;;;;;;;;;;;;;;5093117;28;19912;-73
2021/12/12 15:31:47;;;;;;;;;;;;;;;;;;5092778;28;20010;-75
2021/12/12 15:34:13;;;;;;;;;;;;;;;;;;5093114;28;19916;-74
2021/12/12 15:36:39;;;;;;;;;;;;;;;;;;5092997;28;19912;-76
2021/12/12 15:39:05;;;;;;;;;;;;;;;;;;5093422;28;20314;-73
2021/12/12 15:41:31;;;;;;;;;;;;;;;;;;5079004;28;19908;-73
2021/12/12 15:43:58;;;;;;;;;;;;;;;;;;5096515;28;20323;-73
2021/12/12 15:46:24;;;;;;;;;;;;;;;;;;5097220;28;19908;-73
2021/12/12 15:48:50;;;;;;;;;;;;;;;;;;5078809;28;19916;-73
2021/12/12 15:51:16;;;;;;;;;;;;;;;;;;5096818;28;19916;-74
2021/12/12 15:53:41;;;;;;;;;;;;;;;;;;5097003;28;19908;-73
2021/12/12 15:56:07;;;;;;;;;;;;;;;;;;5096952;28;19999;-72
2021/12/12 15:58:33;;;;;;;;;;;;;;;;;;5096858;28;19908;-72
2021/12/12 16:00:59;;;;;;;;;;;;;;;;;;5096642;28;19912;-72
2021/12/12 16:03:25;;;;;;;;;;;;;;;;;;5096767;28;19912;-75
2021/12/12 16:05:52;;;;;;;;;;;;;;;;;;5096736;28;19935;-73
2021/12/12 16:08:18;;;;;;;;;;;;;;;;;;5078640;28;19955;-71
2021/12/12 16:10:44;;;;;;;;;;;;;;;;;;5096318;28;20407;-72
2021/12/12 16:13:11;;;;;;;;;;;;;;;;;;5096537;28;20003;-72
2021/12/12 16:15:37;;;;;;;;;;;;;;;;;;5096685;28;19934;-72
2021/12/12 16:18:03;;;;;;;;;;;;;;;;;;5096214;28;19908;-71
2021/12/12 16:20:29;;;;;;;;;;;;;;;;;;5096510;28;19908;-71
2021/12/12 16:22:55;;;;;;;;;;;;;;;;;;5096365;28;19909;-72
2021/12/12 16:25:21;;;;;;;;;;;;;;;;;;5096373;28;19908;-71
2021/12/12 16:27:46;;;;;;;;;;;;;;;;;;5095921;28;19908;-71
2021/12/12 16:30:12;;;;;;;;;;;;;;;;;;5096031;28;19908;-71
2021/12/12 16:32:38;;;;;;;;;;;;;;;;;;5077798;28;19916;-72
2021/12/12 16:35:04;;;;;;;;;;;;;;;;;;5095089;28;19912;-72
2021/12/12 16:37:30;;;;;;;;;;;;;;;;;;5095497;28;20380;-72
2021/12/12 16:39:56;;;;;;;;;;;;;;;;;;5096025;28;20003;-72
2021/12/12 16:42:23;;;;;;;;;;;;;;;;;;5096072;28;19954;-71
2021/12/12 16:44:48;;;;;;;;;;;;;;;;;;5095974;28;19908;-71
2021/12/12 16:47:14;;;;;;;;;;;;;;;;;;5095811;28;19915;-72
2021/12/12 16:49:40;;;;;;;;;;;;;;;;;;5095247;28;19912;-71
2021/12/12 16:52:07;;;;;;;;;;;;;;;;;;5094654;28;19973;-71
2021/12/12 16:54:33;;;;;;;;;;;;;;;;;;5095281;28;19938;-71
2021/12/12 16:56:59;;;;;;;;;;;;;;;;;;5095465;28;20311;-71
2021/12/12 16:59:24;;;;;;;;;;;;;;;;;;5095681;28;19908;-71
2021/12/12 17:01:50;;;;;;;;;;;;;;;;;;5095670;28;19916;-72